Terminal Aerodrome Forecast
Issued by NWS Quad Cities IA IL

Home | Current Version | Previous Version | Text Only | Print | Product List | Glossary On
Versions: 1 2 3 4 5 6 7 8 9 10 11 12 13 14 15 16 17 18 19 20 21 22 23 24 25 26 27 28 29 30 31 32 33 34 35 36 37 38
150
FTUS43 KDVN 301233 AAB
TAFMLI
TAF AMD
KMLI 301233Z 3013/0112 08015KT 1 1/2SM -RA BR SCT008 BKN012 OVC040
     FM301301 08014KT 4SM -RA BR SCT008 OVC012
     FM301500 08015G20KT 4SM -RA BR OVC007
     FM302000 07015G20KT 6SM BR VCSH OVC006
     FM010300 06013KT 6SM BR VCSH OVC006=

USA.gov is the U.S. government's official web portal to all federal, state and local government web resources and services.